sensor_id;sensor_type;location;lat;lon;timestamp;P1;durP1;ratioP1;P2;durP2;ratioP2
4148;SDS011;2088;51.032;7.082;2024-02-26T00:00:12;1.00;;;0.90;;
4148;SDS011;2088;51.032;7.082;2024-02-26T00:02:40;0.80;;;0.70;;
4148;SDS011;2088;51.032;7.082;2024-02-26T00:05:07;1.10;;;0.83;;
4148;SDS011;2088;51.032;7.082;2024-02-26T00:07:34;2.87;;;1.07;;
4148;SDS011;2088;51.032;7.082;2024-02-26T00:10:03;1.97;;;0.70;;
4148;SDS011;2088;51.032;7.082;2024-02-26T00:12:30;1.10;;;0.80;;
4148;SDS011;2088;51.032;7.082;2024-02-26T00:14:57;0.70;;;0.60;;
4148;SDS011;2088;51.032;7.082;2024-02-26T00:17:24;1.33;;;0.93;;
4148;SDS011;2088;51.032;7.082;2024-02-26T00:19:51;0.90;;;0.77;;
4148;SDS011;2088;51.032;7.082;2024-02-26T00:22:18;1.67;;;0.80;;
4148;SDS011;2088;51.032;7.082;2024-02-26T00:24:47;1.27;;;0.93;;
4148;SDS011;2088;51.032;7.082;2024-02-26T00:27:15;0.70;;;0.60;;
4148;SDS011;2088;51.032;7.082;2024-02-26T00:29:42;0.83;;;0.70;;
4148;SDS011;2088;51.032;7.082;2024-02-26T00:32:09;0.80;;;0.80;;
4148;SDS011;2088;51.032;7.082;2024-02-26T00:34:36;1.10;;;0.73;;
4148;SDS011;2088;51.032;7.082;2024-02-26T00:37:03;1.53;;;0.97;;
4148;SDS011;2088;51.032;7.082;2024-02-26T00:39:30;1.07;;;0.70;;
4148;SDS011;2088;51.032;7.082;2024-02-26T00:41:56;1.47;;;0.80;;
4148;SDS011;2088;51.032;7.082;2024-02-26T00:44:25;2.30;;;1.00;;
4148;SDS011;2088;51.032;7.082;2024-02-26T00:46:52;0.80;;;0.70;;
4148;SDS011;2088;51.032;7.082;2024-02-26T00:49:19;2.30;;;0.90;;
4148;SDS011;2088;51.032;7.082;2024-02-26T00:51:46;0.80;;;0.80;;
4148;SDS011;2088;51.032;7.082;2024-02-26T00:54:13;2.60;;;1.00;;
4148;SDS011;2088;51.032;7.082;2024-02-26T00:56:40;1.03;;;0.93;;
4148;SDS011;2088;51.032;7.082;2024-02-26T00:59:07;1.87;;;0.90;;
4148;SDS011;2088;51.032;7.082;2024-02-26T01:01:35;0.70;;;0.60;;
4148;SDS011;2088;51.032;7.082;2024-02-26T01:04:03;2.63;;;1.00;;
4148;SDS011;2088;51.032;7.082;2024-02-26T01:06:30;2.33;;;1.00;;
4148;SDS011;2088;51.032;7.082;2024-02-26T01:08:57;1.53;;;1.00;;
4148;SDS011;2088;51.032;7.082;2024-02-26T01:11:24;0.80;;;0.80;;
4148;SDS011;2088;51.032;7.082;2024-02-26T01:13:51;1.20;;;1.03;;
4148;SDS011;2088;51.032;7.082;2024-02-26T01:16:21;0.70;;;0.70;;
4148;SDS011;2088;51.032;7.082;2024-02-26T01:18:49;0.70;;;0.60;;
4148;SDS011;2088;51.032;7.082;2024-02-26T01:21:16;0.70;;;0.60;;
4148;SDS011;2088;51.032;7.082;2024-02-26T01:23:43;1.73;;;1.03;;
4148;SDS011;2088;51.032;7.082;2024-02-26T01:26:10;1.20;;;0.90;;
4148;SDS011;2088;51.032;7.082;2024-02-26T01:28:38;0.73;;;0.73;;
4148;SDS011;2088;51.032;7.082;2024-02-26T01:31:05;2.83;;;1.00;;
4148;SDS011;2088;51.032;7.082;2024-02-26T01:33:33;1.00;;;0.80;;
4148;SDS011;2088;51.032;7.082;2024-02-26T01:36:02;0.80;;;0.70;;
4148;SDS011;2088;51.032;7.082;2024-02-26T01:38:29;3.57;;;0.70;;
4148;SDS011;2088;51.032;7.082;2024-02-26T01:40:56;1.13;;;0.90;;
4148;SDS011;2088;51.032;7.082;2024-02-26T01:43:23;0.70;;;0.70;;
4148;SDS011;2088;51.032;7.082;2024-02-26T01:45:50;0.90;;;0.80;;
4148;SDS011;2088;51.032;7.082;2024-02-26T01:48:17;1.90;;;0.97;;
4148;SDS011;2088;51.032;7.082;2024-02-26T01:50:44;0.97;;;0.87;;
4148;SDS011;2088;51.032;7.082;2024-02-26T01:53:12;0.80;;;0.60;;
4148;SDS011;2088;51.032;7.082;2024-02-26T01:55:39;1.23;;;0.80;;
4148;SDS011;2088;51.032;7.082;2024-02-26T01:58:07;1.43;;;0.70;;
4148;SDS011;2088;51.032;7.082;2024-02-26T02:00:34;1.63;;;0.97;;
4148;SDS011;2088;51.032;7.082;2024-02-26T02:03:01;3.00;;;1.20;;
4148;SDS011;2088;51.032;7.082;2024-02-26T02:05:29;1.57;;;0.87;;
4148;SDS011;2088;51.032;7.082;2024-02-26T02:07:57;0.70;;;0.50;;
4148;SDS011;2088;51.032;7.082;2024-02-26T02:10:25;1.43;;;0.83;;
4148;SDS011;2088;51.032;7.082;2024-02-26T02:12:53;0.83;;;0.80;;
4148;SDS011;2088;51.032;7.082;2024-02-26T02:15:20;1.47;;;0.67;;
4148;SDS011;2088;51.032;7.082;2024-02-26T02:17:47;0.70;;;0.60;;
4148;SDS011;2088;51.032;7.082;2024-02-26T02:20:15;0.93;;;0.90;;
4148;SDS011;2088;51.032;7.082;2024-02-26T02:22:44;1.67;;;0.77;;
4148;SDS011;2088;51.032;7.082;2024-02-26T02:25:11;1.83;;;1.03;;
4148;SDS011;2088;51.032;7.082;2024-02-26T02:27:39;0.97;;;0.70;;
4148;SDS011;2088;51.032;7.082;2024-02-26T02:30:06;1.63;;;1.10;;
4148;SDS011;2088;51.032;7.082;2024-02-26T02:32:34;1.10;;;0.80;;
4148;SDS011;2088;51.032;7.082;2024-02-26T02:35:02;1.20;;;1.10;;
4148;SDS011;2088;51.032;7.082;2024-02-26T02:37:29;0.70;;;0.70;;
4148;SDS011;2088;51.032;7.082;2024-02-26T02:39:57;0.70;;;0.60;;
4148;SDS011;2088;51.032;7.082;2024-02-26T02:42:25;0.80;;;0.77;;
4148;SDS011;2088;51.032;7.082;2024-02-26T02:44:52;1.00;;;0.80;;
4148;SDS011;2088;51.032;7.082;2024-02-26T02:47:19;1.23;;;0.87;;
4148;SDS011;2088;51.032;7.082;2024-02-26T02:49:46;1.17;;;0.80;;
4148;SDS011;2088;51.032;7.082;2024-02-26T02:52:13;0.80;;;0.80;;
4148;SDS011;2088;51.032;7.082;2024-02-26T02:54:40;1.17;;;0.80;;
4148;SDS011;2088;51.032;7.082;2024-02-26T02:57:09;1.40;;;1.13;;
4148;SDS011;2088;51.032;7.082;2024-02-26T02:59:36;1.60;;;1.17;;
4148;SDS011;2088;51.032;7.082;2024-02-26T03:02:04;3.50;;;0.90;;
4148;SDS011;2088;51.032;7.082;2024-02-26T03:04:31;5.17;;;0.80;;
4148;SDS011;2088;51.032;7.082;2024-02-26T03:06:58;1.00;;;0.80;;
4148;SDS011;2088;51.032;7.082;2024-02-26T03:09:26;1.43;;;0.97;;
4148;SDS011;2088;51.032;7.082;2024-02-26T03:11:53;1.00;;;0.70;;
4148;SDS011;2088;51.032;7.082;2024-02-26T03:14:21;0.70;;;0.57;;
4148;SDS011;2088;51.032;7.082;2024-02-26T03:16:48;1.30;;;0.90;;
4148;SDS011;2088;51.032;7.082;2024-02-26T03:19:15;0.90;;;0.77;;
4148;SDS011;2088;51.032;7.082;2024-02-26T03:21:42;1.00;;;0.80;;
4148;SDS011;2088;51.032;7.082;2024-02-26T03:24:10;0.67;;;0.63;;
4148;SDS011;2088;51.032;7.082;2024-02-26T03:26:37;0.97;;;0.63;;
4148;SDS011;2088;51.032;7.082;2024-02-26T03:29:04;0.97;;;0.70;;
4148;SDS011;2088;51.032;7.082;2024-02-26T03:31:33;1.53;;;0.70;;
4148;SDS011;2088;51.032;7.082;2024-02-26T03:34:00;2.67;;;0.53;;
4148;SDS011;2088;51.032;7.082;2024-02-26T03:36:27;0.70;;;0.50;;
4148;SDS011;2088;51.032;7.082;2024-02-26T03:38:54;1.10;;;0.90;;
4148;SDS011;2088;51.032;7.082;2024-02-26T03:41:21;0.80;;;0.80;;
4148;SDS011;2088;51.032;7.082;2024-02-26T03:43:48;0.60;;;0.60;;
4148;SDS011;2088;51.032;7.082;2024-02-26T03:46:15;3.43;;;0.87;;
4148;SDS011;2088;51.032;7.082;2024-02-26T03:48:43;0.80;;;0.70;;
4148;SDS011;2088;51.032;7.082;2024-02-26T03:51:10;0.70;;;0.60;;
4148;SDS011;2088;51.032;7.082;2024-02-26T03:53:37;1.10;;;0.83;;
4148;SDS011;2088;51.032;7.082;2024-02-26T03:56:05;4.30;;;0.90;;
4148;SDS011;2088;51.032;7.082;2024-02-26T03:58:32;1.00;;;0.87;;
4148;SDS011;2088;51.032;7.082;2024-02-26T04:00:59;1.33;;;0.80;;
4148;SDS011;2088;51.032;7.082;2024-02-26T04:03:26;0.70;;;0.67;;
4148;SDS011;2088;51.032;7.082;2024-02-26T04:05:55;1.93;;;0.90;;
4148;SDS011;2088;51.032;7.082;2024-02-26T04:08:22;0.80;;;0.80;;
4148;SDS011;2088;51.032;7.082;2024-02-26T04:10:49;0.90;;;0.73;;
4148;SDS011;2088;51.032;7.082;2024-02-26T04:13:17;1.07;;;0.70;;
4148;SDS011;2088;51.032;7.082;2024-02-26T04:15:44;0.97;;;0.87;;
4148;SDS011;2088;51.032;7.082;2024-02-26T04:18:11;1.83;;;1.10;;
4148;SDS011;2088;51.032;7.082;2024-02-26T04:20:39;2.13;;;1.30;;
4148;SDS011;2088;51.032;7.082;2024-02-26T04:23:08;1.00;;;0.90;;
4148;SDS011;2088;51.032;7.082;2024-02-26T04:25:35;3.60;;;0.73;;
4148;SDS011;2088;51.032;7.082;2024-02-26T04:28:02;1.00;;;0.87;;
4148;SDS011;2088;51.032;7.082;2024-02-26T04:30:29;3.53;;;1.07;;
4148;SDS011;2088;51.032;7.082;2024-02-26T04:32:56;0.70;;;0.63;;
4148;SDS011;2088;51.032;7.082;2024-02-26T04:35:23;0.70;;;0.70;;
4148;SDS011;2088;51.032;7.082;2024-02-26T04:37:51;0.70;;;0.70;;
4148;SDS011;2088;51.032;7.082;2024-02-26T04:40:19;1.83;;;1.13;;
4148;SDS011;2088;51.032;7.082;2024-02-26T04:42:46;0.90;;;0.80;;
4148;SDS011;2088;51.032;7.082;2024-02-26T04:45:13;1.20;;;0.80;;
4148;SDS011;2088;51.032;7.082;2024-02-26T04:47:40;1.13;;;0.80;;
4148;SDS011;2088;51.032;7.082;2024-02-26T04:50:07;2.70;;;0.73;;
4148;SDS011;2088;51.032;7.082;2024-02-26T04:52:34;0.83;;;0.70;;
4148;SDS011;2088;51.032;7.082;2024-02-26T04:55:02;1.57;;;0.80;;
4148;SDS011;2088;51.032;7.082;2024-02-26T04:57:30;2.20;;;0.83;;
4148;SDS011;2088;51.032;7.082;2024-02-26T04:59:57;1.43;;;0.90;;
4148;SDS011;2088;51.032;7.082;2024-02-26T05:02:25;12.73;;;1.43;;
4148;SDS011;2088;51.032;7.082;2024-02-26T05:04:52;1.40;;;1.10;;
4148;SDS011;2088;51.032;7.082;2024-02-26T05:07:19;0.90;;;0.80;;
4148;SDS011;2088;51.032;7.082;2024-02-26T05:09:46;1.10;;;0.93;;
4148;SDS011;2088;51.032;7.082;2024-02-26T05:12:14;1.20;;;0.80;;
4148;SDS011;2088;51.032;7.082;2024-02-26T05:14:43;0.83;;;0.80;;
4148;SDS011;2088;51.032;7.082;2024-02-26T05:17:10;0.60;;;0.60;;
4148;SDS011;2088;51.032;7.082;2024-02-26T05:19:37;3.37;;;0.80;;
4148;SDS011;2088;51.032;7.082;2024-02-26T05:22:04;1.00;;;0.80;;
4148;SDS011;2088;51.032;7.082;2024-02-26T05:24:31;1.10;;;1.00;;
4148;SDS011;2088;51.032;7.082;2024-02-26T05:26:58;1.97;;;1.10;;
4148;SDS011;2088;51.032;7.082;2024-02-26T05:29:25;1.40;;;0.90;;
4148;SDS011;2088;51.032;7.082;2024-02-26T05:31:54;1.97;;;0.73;;
4148;SDS011;2088;51.032;7.082;2024-02-26T05:34:21;1.00;;;0.90;;
4148;SDS011;2088;51.032;7.082;2024-02-26T05:36:48;1.00;;;0.87;;
4148;SDS011;2088;51.032;7.082;2024-02-26T05:39:15;1.07;;;0.90;;
4148;SDS011;2088;51.032;7.082;2024-02-26T05:41:42;0.97;;;0.87;;
4148;SDS011;2088;51.032;7.082;2024-02-26T05:44:10;1.00;;;0.80;;
4148;SDS011;2088;51.032;7.082;2024-02-26T05:46:38;2.60;;;0.90;;
4148;SDS011;2088;51.032;7.082;2024-02-26T05:49:06;1.70;;;1.30;;
4148;SDS011;2088;51.032;7.082;2024-02-26T05:51:33;1.23;;;1.13;;
4148;SDS011;2088;51.032;7.082;2024-02-26T05:54:00;1.57;;;0.90;;
4148;SDS011;2088;51.032;7.082;2024-02-26T05:56:27;0.80;;;0.80;;
4148;SDS011;2088;51.032;7.082;2024-02-26T05:58:54;1.47;;;1.00;;
4148;SDS011;2088;51.032;7.082;2024-02-26T06:01:21;1.07;;;0.97;;
4148;SDS011;2088;51.032;7.082;2024-02-26T06:03:49;9.30;;;1.00;;
4148;SDS011;2088;51.032;7.082;2024-02-26T06:06:18;2.17;;;1.23;;
4148;SDS011;2088;51.032;7.082;2024-02-26T06:08:47;1.23;;;1.07;;
4148;SDS011;2088;51.032;7.082;2024-02-26T06:11:14;1.20;;;1.10;;
4148;SDS011;2088;51.032;7.082;2024-02-26T06:13:41;0.77;;;0.70;;
4148;SDS011;2088;51.032;7.082;2024-02-26T06:16:08;0.90;;;0.70;;
4148;SDS011;2088;51.032;7.082;2024-02-26T06:18:35;1.20;;;1.10;;
4148;SDS011;2088;51.032;7.082;2024-02-26T06:21:02;4.03;;;0.97;;
4148;SDS011;2088;51.032;7.082;2024-02-26T06:23:30;1.10;;;0.90;;
4148;SDS011;2088;51.032;7.082;2024-02-26T06:25:57;1.40;;;1.07;;
4148;SDS011;2088;51.032;7.082;2024-02-26T06:28:24;2.00;;;1.17;;
4148;SDS011;2088;51.032;7.082;2024-02-26T06:30:55;1.50;;;1.13;;
4148;SDS011;2088;51.032;7.082;2024-02-26T06:33:22;1.40;;;0.80;;
4148;SDS011;2088;51.032;7.082;2024-02-26T06:35:49;0.97;;;0.87;;
4148;SDS011;2088;51.032;7.082;2024-02-26T06:38:16;1.10;;;0.90;;
4148;SDS011;2088;51.032;7.082;2024-02-26T06:40:45;1.10;;;1.00;;
4148;SDS011;2088;51.032;7.082;2024-02-26T06:43:12;1.23;;;1.00;;
4148;SDS011;2088;51.032;7.082;2024-02-26T06:45:39;1.10;;;1.00;;
4148;SDS011;2088;51.032;7.082;2024-02-26T06:48:07;1.40;;;1.30;;
4148;SDS011;2088;51.032;7.082;2024-02-26T06:50:34;1.10;;;1.00;;
4148;SDS011;2088;51.032;7.082;2024-02-26T06:53:01;1.37;;;1.00;;
4148;SDS011;2088;51.032;7.082;2024-02-26T06:55:28;6.73;;;1.13;;
4148;SDS011;2088;51.032;7.082;2024-02-26T06:57:56;1.67;;;1.30;;
4148;SDS011;2088;51.032;7.082;2024-02-26T07:00:23;1.50;;;1.03;;
4148;SDS011;2088;51.032;7.082;2024-02-26T07:02:51;1.20;;;1.10;;
4148;SDS011;2088;51.032;7.082;2024-02-26T07:05:18;3.03;;;1.10;;
4148;SDS011;2088;51.032;7.082;2024-02-26T07:07:45;2.47;;;1.40;;
4148;SDS011;2088;51.032;7.082;2024-02-26T07:10:12;1.30;;;1.00;;
4148;SDS011;2088;51.032;7.082;2024-02-26T07:12:39;1.40;;;1.30;;
4148;SDS011;2088;51.032;7.082;2024-02-26T07:15:08;1.80;;;1.70;;
4148;SDS011;2088;51.032;7.082;2024-02-26T07:17:35;3.73;;;1.00;;
4148;SDS011;2088;51.032;7.082;2024-02-26T07:20:04;1.80;;;1.27;;
4148;SDS011;2088;51.032;7.082;2024-02-26T07:22:32;0.80;;;0.80;;
4148;SDS011;2088;51.032;7.082;2024-02-26T07:24:59;1.10;;;1.00;;
4148;SDS011;2088;51.032;7.082;2024-02-26T07:27:26;1.63;;;0.83;;
4148;SDS011;2088;51.032;7.082;2024-02-26T07:29:53;1.47;;;1.13;;
4148;SDS011;2088;51.032;7.082;2024-02-26T07:32:22;1.73;;;1.10;;
4148;SDS011;2088;51.032;7.082;2024-02-26T07:34:49;1.23;;;1.13;;
4148;SDS011;2088;51.032;7.082;2024-02-26T07:37:16;3.43;;;1.03;;
4148;SDS011;2088;51.032;7.082;2024-02-26T07:39:43;1.40;;;1.07;;
4148;SDS011;2088;51.032;7.082;2024-02-26T07:42:10;1.27;;;1.17;;
4148;SDS011;2088;51.032;7.082;2024-02-26T07:44:37;1.07;;;1.00;;
4148;SDS011;2088;51.032;7.082;2024-02-26T07:47:07;1.93;;;1.20;;
4148;SDS011;2088;51.032;7.082;2024-02-26T07:49:36;1.30;;;0.80;;
4148;SDS011;2088;51.032;7.082;2024-02-26T07:52:03;1.00;;;0.90;;
4148;SDS011;2088;51.032;7.082;2024-02-26T07:54:30;1.27;;;0.83;;
4148;SDS011;2088;51.032;7.082;2024-02-26T07:56:57;1.63;;;1.40;;
4148;SDS011;2088;51.032;7.082;2024-02-26T07:59:24;0.90;;;0.80;;
4148;SDS011;2088;51.032;7.082;2024-02-26T08:01:51;1.73;;;1.10;;
4148;SDS011;2088;51.032;7.082;2024-02-26T08:04:18;1.20;;;1.00;;
4148;SDS011;2088;51.032;7.082;2024-02-26T08:06:47;1.40;;;0.80;;
4148;SDS011;2088;51.032;7.082;2024-02-26T08:09:14;1.00;;;0.90;;
4148;SDS011;2088;51.032;7.082;2024-02-26T08:11:41;1.20;;;1.03;;
4148;SDS011;2088;51.032;7.082;2024-02-26T08:14:08;1.13;;;1.03;;
4148;SDS011;2088;51.032;7.082;2024-02-26T08:16:35;1.10;;;0.93;;
4148;SDS011;2088;51.032;7.082;2024-02-26T08:19:02;3.50;;;1.30;;
4148;SDS011;2088;51.032;7.082;2024-02-26T08:21:29;1.33;;;1.07;;
4148;SDS011;2088;51.032;7.082;2024-02-26T08:23:57;1.20;;;1.10;;
4148;SDS011;2088;51.032;7.082;2024-02-26T08:26:24;1.20;;;1.10;;
4148;SDS011;2088;51.032;7.082;2024-02-26T08:28:51;1.53;;;1.13;;
4148;SDS011;2088;51.032;7.082;2024-02-26T08:31:20;1.57;;;1.40;;
4148;SDS011;2088;51.032;7.082;2024-02-26T08:33:48;1.40;;;0.90;;
4148;SDS011;2088;51.032;7.082;2024-02-26T08:36:15;1.80;;;1.50;;
4148;SDS011;2088;51.032;7.082;2024-02-26T08:38:42;1.10;;;1.00;;
4148;SDS011;2088;51.032;7.082;2024-02-26T08:41:10;2.50;;;1.20;;
4148;SDS011;2088;51.032;7.082;2024-02-26T08:43:38;1.23;;;1.13;;
4148;SDS011;2088;51.032;7.082;2024-02-26T08:46:08;2.40;;;1.17;;
4148;SDS011;2088;51.032;7.082;2024-02-26T08:48:35;7.77;;;1.50;;
4148;SDS011;2088;51.032;7.082;2024-02-26T08:51:04;1.17;;;1.07;;
4148;SDS011;2088;51.032;7.082;2024-02-26T08:53:31;1.13;;;1.00;;
4148;SDS011;2088;51.032;7.082;2024-02-26T08:55:58;0.90;;;0.90;;
4148;SDS011;2088;51.032;7.082;2024-02-26T08:58:27;1.33;;;1.10;;
4148;SDS011;2088;51.032;7.082;2024-02-26T09:00:54;1.63;;;1.20;;
4148;SDS011;2088;51.032;7.082;2024-02-26T09:03:21;1.83;;;1.03;;
4148;SDS011;2088;51.032;7.082;2024-02-26T09:05:48;2.00;;;1.43;;
4148;SDS011;2088;51.032;7.082;2024-02-26T09:08:15;2.70;;;1.30;;
4148;SDS011;2088;51.032;7.082;2024-02-26T09:10:42;1.07;;;0.90;;
4148;SDS011;2088;51.032;7.082;2024-02-26T09:13:09;3.07;;;0.90;;
4148;SDS011;2088;51.032;7.082;2024-02-26T09:15:38;1.87;;;0.87;;
4148;SDS011;2088;51.032;7.082;2024-02-26T09:18:05;1.37;;;0.83;;
4148;SDS011;2088;51.032;7.082;2024-02-26T09:20:32;2.20;;;1.40;;
4148;SDS011;2088;51.032;7.082;2024-02-26T09:22:59;2.00;;;1.23;;
4148;SDS011;2088;51.032;7.082;2024-02-26T09:25:26;1.83;;;1.10;;
4148;SDS011;2088;51.032;7.082;2024-02-26T09:27:53;1.27;;;1.17;;
4148;SDS011;2088;51.032;7.082;2024-02-26T09:30:20;2.17;;;1.03;;
4148;SDS011;2088;51.032;7.082;2024-02-26T09:32:48;1.37;;;1.20;;
4148;SDS011;2088;51.032;7.082;2024-02-26T09:35:15;1.00;;;0.90;;
4148;SDS011;2088;51.032;7.082;2024-02-26T09:37:42;2.70;;;1.20;;
4148;SDS011;2088;51.032;7.082;2024-02-26T09:40:10;2.70;;;1.30;;
4148;SDS011;2088;51.032;7.082;2024-02-26T09:42:38;1.20;;;1.07;;
4148;SDS011;2088;51.032;7.082;2024-02-26T09:45:10;2.07;;;1.20;;
4148;SDS011;2088;51.032;7.082;2024-02-26T09:47:38;1.97;;;1.13;;
4148;SDS011;2088;51.032;7.082;2024-02-26T09:50:07;1.20;;;1.10;;
4148;SDS011;2088;51.032;7.082;2024-02-26T09:52:37;2.87;;;1.80;;
4148;SDS011;2088;51.032;7.082;2024-02-26T09:55:05;1.80;;;1.10;;
4148;SDS011;2088;51.032;7.082;2024-02-26T09:57:34;1.57;;;1.27;;
4148;SDS011;2088;51.032;7.082;2024-02-26T10:00:02;1.73;;;1.50;;
4148;SDS011;2088;51.032;7.082;2024-02-26T10:02:32;2.60;;;1.43;;
4148;SDS011;2088;51.032;7.082;2024-02-26T10:04:59;1.87;;;1.67;;
4148;SDS011;2088;51.032;7.082;2024-02-26T10:07:31;1.00;;;0.90;;
4148;SDS011;2088;51.032;7.082;2024-02-26T10:09:58;1.60;;;1.27;;
4148;SDS011;2088;51.032;7.082;2024-02-26T10:12:25;1.67;;;1.27;;
4148;SDS011;2088;51.032;7.082;2024-02-26T10:14:53;1.70;;;1.23;;
4148;SDS011;2088;51.032;7.082;2024-02-26T10:17:20;1.87;;;1.30;;
4148;SDS011;2088;51.032;7.082;2024-02-26T10:19:48;1.80;;;1.40;;
4148;SDS011;2088;51.032;7.082;2024-02-26T10:22:16;2.50;;;1.10;;
4148;SDS011;2088;51.032;7.082;2024-02-26T10:24:46;1.43;;;1.33;;
4148;SDS011;2088;51.032;7.082;2024-02-26T10:27:13;1.40;;;1.30;;
4148;SDS011;2088;51.032;7.082;2024-02-26T10:29:41;2.80;;;1.60;;
4148;SDS011;2088;51.032;7.082;2024-02-26T10:32:09;2.43;;;1.47;;
4148;SDS011;2088;51.032;7.082;2024-02-26T10:34:39;2.10;;;1.87;;
4148;SDS011;2088;51.032;7.082;2024-02-26T10:37:06;1.20;;;0.97;;
4148;SDS011;2088;51.032;7.082;2024-02-26T10:39:35;6.43;;;1.40;;
4148;SDS011;2088;51.032;7.082;2024-02-26T10:42:05;2.13;;;1.33;;
4148;SDS011;2088;51.032;7.082;2024-02-26T10:44:35;2.03;;;1.60;;
4148;SDS011;2088;51.032;7.082;2024-02-26T10:47:02;1.90;;;1.53;;
4148;SDS011;2088;51.032;7.082;2024-02-26T10:49:29;3.07;;;1.40;;
4148;SDS011;2088;51.032;7.082;2024-02-26T10:51:56;1.40;;;1.30;;
4148;SDS011;2088;51.032;7.082;2024-02-26T10:54:23;1.37;;;1.27;;
4148;SDS011;2088;51.032;7.082;2024-02-26T10:56:53;1.10;;;1.00;;
4148;SDS011;2088;51.032;7.082;2024-02-26T10:59:21;1.23;;;1.10;;
4148;SDS011;2088;51.032;7.082;2024-02-26T11:01:48;1.80;;;1.43;;
4148;SDS011;2088;51.032;7.082;2024-02-26T11:04:16;1.40;;;1.00;;
4148;SDS011;2088;51.032;7.082;2024-02-26T11:06:44;5.53;;;1.60;;
4148;SDS011;2088;51.032;7.082;2024-02-26T11:09:12;1.37;;;1.27;;
4148;SDS011;2088;51.032;7.082;2024-02-26T11:11:39;2.53;;;1.50;;
4148;SDS011;2088;51.032;7.082;2024-02-26T11:14:08;1.53;;;1.10;;
4148;SDS011;2088;51.032;7.082;2024-02-26T11:16:37;1.83;;;1.20;;
4148;SDS011;2088;51.032;7.082;2024-02-26T11:19:04;1.63;;;1.13;;
4148;SDS011;2088;51.032;7.082;2024-02-26T11:21:33;4.77;;;1.27;;
4148;SDS011;2088;51.032;7.082;2024-02-26T11:24:06;1.60;;;1.23;;
4148;SDS011;2088;51.032;7.082;2024-02-26T11:26:34;1.77;;;1.30;;
4148;SDS011;2088;51.032;7.082;2024-02-26T11:29:01;1.83;;;1.27;;
4148;SDS011;2088;51.032;7.082;2024-02-26T11:31:28;3.00;;;1.80;;
4148;SDS011;2088;51.032;7.082;2024-02-26T11:33:57;1.90;;;1.67;;
4148;SDS011;2088;51.032;7.082;2024-02-26T11:36:24;1.87;;;1.57;;
4148;SDS011;2088;51.032;7.082;2024-02-26T11:38:51;3.83;;;2.40;;
4148;SDS011;2088;51.032;7.082;2024-02-26T11:41:18;2.70;;;1.80;;
4148;SDS011;2088;51.032;7.082;2024-02-26T11:43:49;2.03;;;1.50;;
4148;SDS011;2088;51.032;7.082;2024-02-26T11:46:26;2.17;;;1.40;;
4148;SDS011;2088;51.032;7.082;2024-02-26T11:48:54;1.87;;;1.73;;
4148;SDS011;2088;51.032;7.082;2024-02-26T11:51:26;1.70;;;1.60;;
4148;SDS011;2088;51.032;7.082;2024-02-26T11:53:53;1.80;;;1.17;;
4148;SDS011;2088;51.032;7.082;2024-02-26T11:56:22;3.00;;;1.97;;
4148;SDS011;2088;51.032;7.082;2024-02-26T11:58:53;2.27;;;1.93;;
4148;SDS011;2088;51.032;7.082;2024-02-26T12:01:35;1.40;;;1.30;;
4148;SDS011;2088;51.032;7.082;2024-02-26T12:04:04;2.77;;;1.90;;
4148;SDS011;2088;51.032;7.082;2024-02-26T12:06:33;8.20;;;1.50;;
4148;SDS011;2088;51.032;7.082;2024-02-26T12:09:06;2.63;;;1.30;;
4148;SDS011;2088;51.032;7.082;2024-02-26T12:11:36;4.60;;;1.53;;
4148;SDS011;2088;51.032;7.082;2024-02-26T12:14:05;1.87;;;1.60;;
4148;SDS011;2088;51.032;7.082;2024-02-26T12:16:34;3.03;;;1.63;;
4148;SDS011;2088;51.032;7.082;2024-02-26T12:19:02;2.60;;;1.30;;
4148;SDS011;2088;51.032;7.082;2024-02-26T12:21:30;1.93;;;1.60;;
4148;SDS011;2088;51.032;7.082;2024-02-26T12:24:07;1.47;;;1.37;;
4148;SDS011;2088;51.032;7.082;2024-02-26T12:26:34;3.60;;;1.77;;
4148;SDS011;2088;51.032;7.082;2024-02-26T12:29:01;2.23;;;1.30;;
4148;SDS011;2088;51.032;7.082;2024-02-26T12:31:28;1.73;;;1.63;;
4148;SDS011;2088;51.032;7.082;2024-02-26T12:33:56;2.67;;;1.83;;
4148;SDS011;2088;51.032;7.082;2024-02-26T12:36:24;2.70;;;1.70;;
4148;SDS011;2088;51.032;7.082;2024-02-26T12:38:51;2.80;;;1.97;;
4148;SDS011;2088;51.032;7.082;2024-02-26T12:41:20;2.60;;;1.57;;
4148;SDS011;2088;51.032;7.082;2024-02-26T12:43:47;2.70;;;1.60;;
4148;SDS011;2088;51.032;7.082;2024-02-26T12:46:14;2.53;;;2.00;;
4148;SDS011;2088;51.032;7.082;2024-02-26T12:48:42;1.63;;;1.53;;
4148;SDS011;2088;51.032;7.082;2024-02-26T12:51:09;3.37;;;1.70;;
4148;SDS011;2088;51.032;7.082;2024-02-26T12:53:37;2.00;;;1.80;;
4148;SDS011;2088;51.032;7.082;2024-02-26T12:56:05;1.87;;;1.67;;
4148;SDS011;2088;51.032;7.082;2024-02-26T12:58:34;2.20;;;1.70;;
4148;SDS011;2088;51.032;7.082;2024-02-26T13:01:03;2.50;;;1.40;;
4148;SDS011;2088;51.032;7.082;2024-02-26T13:03:30;3.43;;;2.00;;
4148;SDS011;2088;51.032;7.082;2024-02-26T13:05:57;2.30;;;1.97;;
4148;SDS011;2088;51.032;7.082;2024-02-26T13:08:25;2.43;;;1.50;;
4148;SDS011;2088;51.032;7.082;2024-02-26T13:10:52;2.03;;;1.70;;
4148;SDS011;2088;51.032;7.082;2024-02-26T13:13:19;1.93;;;1.70;;
4148;SDS011;2088;51.032;7.082;2024-02-26T13:15:47;1.70;;;1.60;;
4148;SDS011;2088;51.032;7.082;2024-02-26T13:18:14;3.03;;;2.03;;
4148;SDS011;2088;51.032;7.082;2024-02-26T13:20:41;1.93;;;1.80;;
4148;SDS011;2088;51.032;7.082;2024-02-26T13:23:10;2.37;;;2.17;;
4148;SDS011;2088;51.032;7.082;2024-02-26T13:25:38;2.17;;;1.67;;
4148;SDS011;2088;51.032;7.082;2024-02-26T13:28:06;2.70;;;2.40;;
4148;SDS011;2088;51.032;7.082;2024-02-26T13:30:34;2.40;;;1.70;;
4148;SDS011;2088;51.032;7.082;2024-02-26T13:33:08;5.00;;;2.33;;
4148;SDS011;2088;51.032;7.082;2024-02-26T13:35:36;2.40;;;1.90;;
4148;SDS011;2088;51.032;7.082;2024-02-26T13:38:04;2.87;;;1.90;;
4148;SDS011;2088;51.032;7.082;2024-02-26T13:40:32;2.40;;;1.80;;
4148;SDS011;2088;51.032;7.082;2024-02-26T13:42:59;3.63;;;2.77;;
4148;SDS011;2088;51.032;7.082;2024-02-26T13:45:27;3.80;;;2.30;;
4148;SDS011;2088;51.032;7.082;2024-02-26T13:47:54;3.33;;;2.47;;
4148;SDS011;2088;51.032;7.082;2024-02-26T13:50:22;2.63;;;2.10;;
4148;SDS011;2088;51.032;7.082;2024-02-26T13:52:49;3.60;;;2.33;;
4148;SDS011;2088;51.032;7.082;2024-02-26T13:55:19;12.40;;;3.10;;
4148;SDS011;2088;51.032;7.082;2024-02-26T13:57:47;4.00;;;2.57;;
4148;SDS011;2088;51.032;7.082;2024-02-26T14:00:17;2.70;;;2.40;;
4148;SDS011;2088;51.032;7.082;2024-02-26T14:02:44;6.10;;;3.03;;
4148;SDS011;2088;51.032;7.082;2024-02-26T14:05:11;5.47;;;2.90;;
4148;SDS011;2088;51.032;7.082;2024-02-26T14:07:39;4.20;;;2.80;;
4148;SDS011;2088;51.032;7.082;2024-02-26T14:10:07;5.50;;;3.60;;
4148;SDS011;2088;51.032;7.082;2024-02-26T14:12:35;5.50;;;3.23;;
4148;SDS011;2088;51.032;7.082;2024-02-26T14:15:02;6.57;;;3.70;;
4148;SDS011;2088;51.032;7.082;2024-02-26T14:17:30;13.97;;;3.47;;
4148;SDS011;2088;51.032;7.082;2024-02-26T14:19:57;3.13;;;2.80;;
4148;SDS011;2088;51.032;7.082;2024-02-26T14:22:24;5.03;;;3.27;;
4148;SDS011;2088;51.032;7.082;2024-02-26T14:24:53;6.03;;;3.40;;
4148;SDS011;2088;51.032;7.082;2024-02-26T14:27:20;5.57;;;3.60;;
4148;SDS011;2088;51.032;7.082;2024-02-26T14:29:47;5.10;;;4.00;;
4148;SDS011;2088;51.032;7.082;2024-02-26T14:32:14;8.27;;;4.53;;
4148;SDS011;2088;51.032;7.082;2024-02-26T14:34:42;8.37;;;4.50;;
4148;SDS011;2088;51.032;7.082;2024-02-26T14:37:09;6.33;;;4.07;;
4148;SDS011;2088;51.032;7.082;2024-02-26T14:39:37;8.90;;;4.30;;
4148;SDS011;2088;51.032;7.082;2024-02-26T14:42:06;7.03;;;3.70;;
4148;SDS011;2088;51.032;7.082;2024-02-26T14:44:33;9.90;;;4.17;;
4148;SDS011;2088;51.032;7.082;2024-02-26T14:47:00;5.47;;;3.80;;
4148;SDS011;2088;51.032;7.082;2024-02-26T14:49:27;6.53;;;3.93;;
4148;SDS011;2088;51.032;7.082;2024-02-26T14:51:56;5.90;;;3.80;;
4148;SDS011;2088;51.032;7.082;2024-02-26T14:54:23;8.47;;;4.77;;
4148;SDS011;2088;51.032;7.082;2024-02-26T14:56:50;7.20;;;3.90;;
4148;SDS011;2088;51.032;7.082;2024-02-26T14:59:19;9.03;;;5.73;;
4148;SDS011;2088;51.032;7.082;2024-02-26T15:01:46;9.50;;;5.30;;
4148;SDS011;2088;51.032;7.082;2024-02-26T15:04:13;9.10;;;4.60;;
4148;SDS011;2088;51.032;7.082;2024-02-26T15:06:40;7.43;;;4.33;;
4148;SDS011;2088;51.032;7.082;2024-02-26T15:09:07;11.70;;;5.97;;
4148;SDS011;2088;51.032;7.082;2024-02-26T15:11:37;13.53;;;5.90;;
4148;SDS011;2088;51.032;7.082;2024-02-26T15:14:04;8.93;;;5.77;;
4148;SDS011;2088;51.032;7.082;2024-02-26T15:16:32;14.30;;;5.13;;